sensor_id;sensor_type;location;lat;lon;timestamp;P1;durP1;ratioP1;P2;durP2;ratioP2
71150;SDS011;59071;42.138;24.768;2022-12-20T00:01:21;17.50;;;7.38;;
71150;SDS011;59071;42.138;24.768;2022-12-20T00:03:52;14.63;;;7.53;;
71150;SDS011;59071;42.138;24.768;2022-12-20T00:06:19;14.50;;;7.53;;
71150;SDS011;59071;42.138;24.768;2022-12-20T00:08:45;20.58;;;8.50;;
71150;SDS011;59071;42.138;24.768;2022-12-20T00:11:11;14.13;;;7.18;;
71150;SDS011;59071;42.138;24.768;2022-12-20T00:13:37;13.25;;;7.68;;
71150;SDS011;59071;42.138;24.768;2022-12-20T00:16:14;17.13;;;8.05;;
71150;SDS011;59071;42.138;24.768;2022-12-20T00:18:41;15.95;;;7.30;;
71150;SDS011;59071;42.138;24.768;2022-12-20T00:21:08;16.20;;;8.02;;
71150;SDS011;59071;42.138;24.768;2022-12-20T00:23:35;15.68;;;8.05;;
71150;SDS011;59071;42.138;24.768;2022-12-20T00:26:03;14.13;;;7.63;;
71150;SDS011;59071;42.138;24.768;2022-12-20T00:28:31;16.98;;;7.57;;
71150;SDS011;59071;42.138;24.768;2022-12-20T00:30:56;16.08;;;8.30;;
71150;SDS011;59071;42.138;24.768;2022-12-20T00:33:22;14.45;;;7.60;;
71150;SDS011;59071;42.138;24.768;2022-12-20T00:35:47;15.40;;;8.05;;
71150;SDS011;59071;42.138;24.768;2022-12-20T00:38:13;15.75;;;8.32;;
71150;SDS011;59071;42.138;24.768;2022-12-20T00:40:38;19.17;;;8.65;;
71150;SDS011;59071;42.138;24.768;2022-12-20T00:43:04;19.45;;;9.05;;
71150;SDS011;59071;42.138;24.768;2022-12-20T00:45:29;17.98;;;9.68;;
71150;SDS011;59071;42.138;24.768;2022-12-20T00:47:55;17.60;;;8.75;;
71150;SDS011;59071;42.138;24.768;2022-12-20T00:50:20;20.33;;;9.27;;
71150;SDS011;59071;42.138;24.768;2022-12-20T00:52:45;21.02;;;9.60;;
71150;SDS011;59071;42.138;24.768;2022-12-20T00:55:11;20.35;;;10.00;;
71150;SDS011;59071;42.138;24.768;2022-12-20T00:57:36;22.83;;;10.35;;
71150;SDS011;59071;42.138;24.768;2022-12-20T01:00:02;19.95;;;10.88;;
71150;SDS011;59071;42.138;24.768;2022-12-20T01:02:28;23.75;;;10.88;;
71150;SDS011;59071;42.138;24.768;2022-12-20T01:04:54;24.45;;;11.32;;
71150;SDS011;59071;42.138;24.768;2022-12-20T01:07:19;19.88;;;10.25;;
71150;SDS011;59071;42.138;24.768;2022-12-20T01:09:47;24.23;;;11.70;;
71150;SDS011;59071;42.138;24.768;2022-12-20T01:12:12;22.70;;;10.55;;
71150;SDS011;59071;42.138;24.768;2022-12-20T01:14:38;19.00;;;9.88;;
71150;SDS011;59071;42.138;24.768;2022-12-20T01:17:03;19.25;;;9.85;;
71150;SDS011;59071;42.138;24.768;2022-12-20T01:19:29;22.55;;;9.82;;
71150;SDS011;59071;42.138;24.768;2022-12-20T01:21:54;21.77;;;10.77;;
71150;SDS011;59071;42.138;24.768;2022-12-20T01:24:19;18.75;;;9.00;;
71150;SDS011;59071;42.138;24.768;2022-12-20T01:26:45;18.15;;;8.85;;
71150;SDS011;59071;42.138;24.768;2022-12-20T01:29:11;19.88;;;9.05;;
71150;SDS011;59071;42.138;24.768;2022-12-20T01:31:36;19.83;;;7.97;;
71150;SDS011;59071;42.138;24.768;2022-12-20T01:34:02;20.67;;;9.10;;
71150;SDS011;59071;42.138;24.768;2022-12-20T01:36:30;18.50;;;8.57;;
71150;SDS011;59071;42.138;24.768;2022-12-20T01:38:57;18.47;;;8.60;;
71150;SDS011;59071;42.138;24.768;2022-12-20T01:41:33;18.98;;;8.73;;
71150;SDS011;59071;42.138;24.768;2022-12-20T01:44:01;21.00;;;9.48;;
71150;SDS011;59071;42.138;24.768;2022-12-20T01:46:43;22.90;;;8.65;;
71150;SDS011;59071;42.138;24.768;2022-12-20T01:49:17;17.52;;;8.48;;
71150;SDS011;59071;42.138;24.768;2022-12-20T01:54:18;20.40;;;9.10;;
71150;SDS011;59071;42.138;24.768;2022-12-20T01:56:53;18.35;;;8.98;;
71150;SDS011;59071;42.138;24.768;2022-12-20T01:59:23;19.50;;;8.48;;
71150;SDS011;59071;42.138;24.768;2022-12-20T02:01:50;18.38;;;8.90;;
71150;SDS011;59071;42.138;24.768;2022-12-20T02:04:15;20.48;;;9.23;;
71150;SDS011;59071;42.138;24.768;2022-12-20T02:06:41;18.95;;;8.65;;
71150;SDS011;59071;42.138;24.768;2022-12-20T02:09:06;17.42;;;8.63;;
71150;SDS011;59071;42.138;24.768;2022-12-20T02:11:43;18.67;;;8.95;;
71150;SDS011;59071;42.138;24.768;2022-12-20T02:30:41;18.92;;;9.10;;
71150;SDS011;59071;42.138;24.768;2022-12-20T02:33:11;20.48;;;9.48;;
71150;SDS011;59071;42.138;24.768;2022-12-20T02:35:39;19.00;;;8.15;;
71150;SDS011;59071;42.138;24.768;2022-12-20T02:38:25;19.27;;;9.32;;
71150;SDS011;59071;42.138;24.768;2022-12-20T02:40:52;19.63;;;9.38;;
71150;SDS011;59071;42.138;24.768;2022-12-20T02:43:22;20.02;;;9.02;;
71150;SDS011;59071;42.138;24.768;2022-12-20T02:46:09;19.63;;;9.52;;
71150;SDS011;59071;42.138;24.768;2022-12-20T02:48:35;18.80;;;9.15;;
71150;SDS011;59071;42.138;24.768;2022-12-20T02:51:03;21.70;;;10.10;;
71150;SDS011;59071;42.138;24.768;2022-12-20T02:53:30;20.10;;;9.00;;
71150;SDS011;59071;42.138;24.768;2022-12-20T02:56:05;18.17;;;9.38;;
71150;SDS011;59071;42.138;24.768;2022-12-20T03:01:29;23.30;;;10.15;;
71150;SDS011;59071;42.138;24.768;2022-12-20T03:03:58;21.98;;;9.77;;
71150;SDS011;59071;42.138;24.768;2022-12-20T03:06:25;19.77;;;8.82;;
71150;SDS011;59071;42.138;24.768;2022-12-20T03:08:51;21.98;;;9.55;;
71150;SDS011;59071;42.138;24.768;2022-12-20T03:11:16;18.92;;;8.75;;
71150;SDS011;59071;42.138;24.768;2022-12-20T03:13:42;20.05;;;9.10;;
71150;SDS011;59071;42.138;24.768;2022-12-20T03:16:07;21.02;;;9.48;;
71150;SDS011;59071;42.138;24.768;2022-12-20T03:18:34;21.55;;;9.45;;
71150;SDS011;59071;42.138;24.768;2022-12-20T03:21:00;17.08;;;8.50;;
71150;SDS011;59071;42.138;24.768;2022-12-20T03:23:25;23.33;;;10.13;;
71150;SDS011;59071;42.138;24.768;2022-12-20T03:25:51;19.95;;;9.27;;
71150;SDS011;59071;42.138;24.768;2022-12-20T03:28:16;22.63;;;9.55;;
71150;SDS011;59071;42.138;24.768;2022-12-20T03:30:41;22.73;;;9.63;;
71150;SDS011;59071;42.138;24.768;2022-12-20T03:33:07;20.67;;;10.25;;
71150;SDS011;59071;42.138;24.768;2022-12-20T03:35:32;27.95;;;13.27;;
71150;SDS011;59071;42.138;24.768;2022-12-20T03:37:58;26.33;;;12.32;;
71150;SDS011;59071;42.138;24.768;2022-12-20T03:40:23;26.13;;;10.95;;
71150;SDS011;59071;42.138;24.768;2022-12-20T03:42:48;22.40;;;10.82;;
71150;SDS011;59071;42.138;24.768;2022-12-20T03:45:14;22.60;;;10.63;;
71150;SDS011;59071;42.138;24.768;2022-12-20T03:47:39;21.23;;;10.20;;
71150;SDS011;59071;42.138;24.768;2022-12-20T03:50:05;21.23;;;9.75;;
71150;SDS011;59071;42.138;24.768;2022-12-20T03:52:31;17.65;;;9.20;;
71150;SDS011;59071;42.138;24.768;2022-12-20T03:54:57;19.95;;;9.50;;
71150;SDS011;59071;42.138;24.768;2022-12-20T03:57:22;23.02;;;10.20;;
71150;SDS011;59071;42.138;24.768;2022-12-20T03:59:47;23.27;;;10.80;;
71150;SDS011;59071;42.138;24.768;2022-12-20T04:02:13;22.02;;;9.80;;
71150;SDS011;59071;42.138;24.768;2022-12-20T04:04:38;20.55;;;10.02;;
71150;SDS011;59071;42.138;24.768;2022-12-20T04:07:04;21.38;;;10.25;;
71150;SDS011;59071;42.138;24.768;2022-12-20T04:09:29;26.25;;;11.60;;
71150;SDS011;59071;42.138;24.768;2022-12-20T04:11:54;44.50;;;22.00;;
71150;SDS011;59071;42.138;24.768;2022-12-20T04:14:20;26.90;;;13.63;;
71150;SDS011;59071;42.138;24.768;2022-12-20T04:16:45;25.48;;;11.75;;
71150;SDS011;59071;42.138;24.768;2022-12-20T04:19:11;40.50;;;18.08;;
71150;SDS011;59071;42.138;24.768;2022-12-20T04:21:36;21.33;;;10.18;;
71150;SDS011;59071;42.138;24.768;2022-12-20T04:24:02;17.65;;;9.45;;
71150;SDS011;59071;42.138;24.768;2022-12-20T04:26:28;21.75;;;9.35;;
71150;SDS011;59071;42.138;24.768;2022-12-20T04:28:54;21.42;;;9.13;;
71150;SDS011;59071;42.138;24.768;2022-12-20T04:31:19;22.63;;;9.65;;
71150;SDS011;59071;42.138;24.768;2022-12-20T04:33:45;20.98;;;9.88;;
71150;SDS011;59071;42.138;24.768;2022-12-20T04:36:11;25.85;;;10.85;;
71150;SDS011;59071;42.138;24.768;2022-12-20T04:38:37;19.30;;;9.27;;
71150;SDS011;59071;42.138;24.768;2022-12-20T04:41:02;19.70;;;9.32;;
71150;SDS011;59071;42.138;24.768;2022-12-20T04:43:28;25.17;;;10.75;;
71150;SDS011;59071;42.138;24.768;2022-12-20T04:45:54;26.95;;;11.20;;
71150;SDS011;59071;42.138;24.768;2022-12-20T04:48:20;28.42;;;11.27;;
71150;SDS011;59071;42.138;24.768;2022-12-20T04:50:48;30.50;;;11.23;;
71150;SDS011;59071;42.138;24.768;2022-12-20T04:53:14;24.98;;;10.25;;
71150;SDS011;59071;42.138;24.768;2022-12-20T04:55:59;21.77;;;10.00;;
71150;SDS011;59071;42.138;24.768;2022-12-20T04:58:24;25.80;;;10.63;;
71150;SDS011;59071;42.138;24.768;2022-12-20T05:00:50;28.25;;;10.48;;
71150;SDS011;59071;42.138;24.768;2022-12-20T05:03:18;25.20;;;10.40;;
71150;SDS011;59071;42.138;24.768;2022-12-20T05:05:44;28.48;;;11.15;;
71150;SDS011;59071;42.138;24.768;2022-12-20T05:08:10;24.17;;;10.48;;
71150;SDS011;59071;42.138;24.768;2022-12-20T05:10:36;29.35;;;11.20;;
71150;SDS011;59071;42.138;24.768;2022-12-20T05:13:01;25.15;;;11.15;;
71150;SDS011;59071;42.138;24.768;2022-12-20T05:15:26;22.85;;;10.60;;
71150;SDS011;59071;42.138;24.768;2022-12-20T05:17:53;25.25;;;11.15;;
71150;SDS011;59071;42.138;24.768;2022-12-20T05:20:23;22.38;;;10.70;;
71150;SDS011;59071;42.138;24.768;2022-12-20T05:22:50;21.70;;;10.73;;
71150;SDS011;59071;42.138;24.768;2022-12-20T05:25:33;23.08;;;10.60;;
71150;SDS011;59071;42.138;24.768;2022-12-20T05:28:17;29.35;;;10.93;;
71150;SDS011;59071;42.138;24.768;2022-12-20T05:30:43;26.13;;;11.43;;
71150;SDS011;59071;42.138;24.768;2022-12-20T05:33:08;26.27;;;11.77;;
71150;SDS011;59071;42.138;24.768;2022-12-20T05:35:34;27.58;;;13.35;;
71150;SDS011;59071;42.138;24.768;2022-12-20T05:37:59;32.95;;;14.77;;
71150;SDS011;59071;42.138;24.768;2022-12-20T05:40:25;47.35;;;23.05;;
71150;SDS011;59071;42.138;24.768;2022-12-20T05:42:50;32.45;;;13.38;;
71150;SDS011;59071;42.138;24.768;2022-12-20T05:45:15;35.38;;;15.57;;
71150;SDS011;59071;42.138;24.768;2022-12-20T05:47:41;34.33;;;13.35;;
71150;SDS011;59071;42.138;24.768;2022-12-20T05:50:06;31.38;;;12.70;;
71150;SDS011;59071;42.138;24.768;2022-12-20T05:52:32;32.80;;;12.30;;
71150;SDS011;59071;42.138;24.768;2022-12-20T05:54:58;34.03;;;12.77;;
71150;SDS011;59071;42.138;24.768;2022-12-20T05:57:23;35.10;;;13.85;;
71150;SDS011;59071;42.138;24.768;2022-12-20T05:59:49;29.38;;;12.55;;
71150;SDS011;59071;42.138;24.768;2022-12-20T06:02:14;29.15;;;13.88;;
71150;SDS011;59071;42.138;24.768;2022-12-20T06:04:40;33.40;;;14.32;;
71150;SDS011;59071;42.138;24.768;2022-12-20T06:07:05;35.47;;;14.57;;
71150;SDS011;59071;42.138;24.768;2022-12-20T06:09:31;32.25;;;14.73;;
71150;SDS011;59071;42.138;24.768;2022-12-20T06:11:57;34.28;;;15.20;;
71150;SDS011;59071;42.138;24.768;2022-12-20T06:14:23;36.85;;;15.48;;
71150;SDS011;59071;42.138;24.768;2022-12-20T06:16:49;32.03;;;14.02;;
71150;SDS011;59071;42.138;24.768;2022-12-20T06:19:14;37.25;;;15.27;;
71150;SDS011;59071;42.138;24.768;2022-12-20T06:21:40;44.13;;;19.48;;
71150;SDS011;59071;42.138;24.768;2022-12-20T06:24:06;37.50;;;16.08;;
71150;SDS011;59071;42.138;24.768;2022-12-20T06:26:32;40.33;;;15.60;;
71150;SDS011;59071;42.138;24.768;2022-12-20T06:29:01;47.25;;;15.98;;
71150;SDS011;59071;42.138;24.768;2022-12-20T06:31:27;34.83;;;15.75;;
71150;SDS011;59071;42.138;24.768;2022-12-20T06:33:53;35.05;;;14.38;;
71150;SDS011;59071;42.138;24.768;2022-12-20T06:36:18;35.88;;;14.52;;
71150;SDS011;59071;42.138;24.768;2022-12-20T06:38:44;35.13;;;15.93;;
71150;SDS011;59071;42.138;24.768;2022-12-20T06:41:09;42.42;;;17.33;;
71150;SDS011;59071;42.138;24.768;2022-12-20T06:43:34;137.30;;;67.05;;
71150;SDS011;59071;42.138;24.768;2022-12-20T06:46:00;54.50;;;22.02;;
71150;SDS011;59071;42.138;24.768;2022-12-20T06:48:25;34.42;;;16.30;;
71150;SDS011;59071;42.138;24.768;2022-12-20T06:50:51;36.40;;;15.57;;
71150;SDS011;59071;42.138;24.768;2022-12-20T06:53:16;46.17;;;16.80;;
71150;SDS011;59071;42.138;24.768;2022-12-20T06:55:41;44.88;;;17.15;;
71150;SDS011;59071;42.138;24.768;2022-12-20T06:58:07;40.38;;;17.55;;
71150;SDS011;59071;42.138;24.768;2022-12-20T07:00:33;31.33;;;14.27;;
71150;SDS011;59071;42.138;24.768;2022-12-20T07:02:58;29.60;;;14.35;;
71150;SDS011;59071;42.138;24.768;2022-12-20T07:05:24;27.42;;;14.38;;
71150;SDS011;59071;42.138;24.768;2022-12-20T07:07:49;26.30;;;13.80;;
71150;SDS011;59071;42.138;24.768;2022-12-20T07:10:15;28.35;;;13.57;;
71150;SDS011;59071;42.138;24.768;2022-12-20T07:12:40;28.38;;;13.02;;
71150;SDS011;59071;42.138;24.768;2022-12-20T07:15:06;22.50;;;12.57;;
71150;SDS011;59071;42.138;24.768;2022-12-20T07:17:32;33.42;;;14.00;;
71150;SDS011;59071;42.138;24.768;2022-12-20T07:19:58;41.05;;;17.88;;
71150;SDS011;59071;42.138;24.768;2022-12-20T07:22:24;28.98;;;13.88;;
71150;SDS011;59071;42.138;24.768;2022-12-20T07:24:49;23.95;;;12.13;;
71150;SDS011;59071;42.138;24.768;2022-12-20T07:27:15;21.50;;;11.38;;
71150;SDS011;59071;42.138;24.768;2022-12-20T07:29:40;20.48;;;10.52;;
71150;SDS011;59071;42.138;24.768;2022-12-20T07:32:06;17.92;;;10.27;;
71150;SDS011;59071;42.138;24.768;2022-12-20T07:34:31;17.38;;;10.63;;
71150;SDS011;59071;42.138;24.768;2022-12-20T07:36:57;20.35;;;11.70;;
71150;SDS011;59071;42.138;24.768;2022-12-20T07:39:23;24.48;;;12.43;;
71150;SDS011;59071;42.138;24.768;2022-12-20T07:41:48;18.85;;;10.88;;
71150;SDS011;59071;42.138;24.768;2022-12-20T07:44:18;22.20;;;11.73;;
71150;SDS011;59071;42.138;24.768;2022-12-20T07:46:43;23.35;;;12.23;;
71150;SDS011;59071;42.138;24.768;2022-12-20T07:49:09;22.05;;;11.77;;
71150;SDS011;59071;42.138;24.768;2022-12-20T07:51:35;22.13;;;12.23;;
71150;SDS011;59071;42.138;24.768;2022-12-20T07:54:05;23.23;;;12.70;;
71150;SDS011;59071;42.138;24.768;2022-12-20T07:56:37;24.60;;;13.70;;
71150;SDS011;59071;42.138;24.768;2022-12-20T07:59:06;21.50;;;12.07;;
71150;SDS011;59071;42.138;24.768;2022-12-20T08:01:34;20.33;;;11.38;;
71150;SDS011;59071;42.138;24.768;2022-12-20T08:04:05;20.33;;;11.50;;
71150;SDS011;59071;42.138;24.768;2022-12-20T08:06:35;19.88;;;11.57;;
71150;SDS011;59071;42.138;24.768;2022-12-20T08:09:02;21.17;;;11.55;;
71150;SDS011;59071;42.138;24.768;2022-12-20T08:11:29;25.80;;;12.90;;
71150;SDS011;59071;42.138;24.768;2022-12-20T08:16:24;19.25;;;11.20;;
71150;SDS011;59071;42.138;24.768;2022-12-20T08:18:50;25.02;;;11.65;;
71150;SDS011;59071;42.138;24.768;2022-12-20T08:21:15;24.35;;;12.18;;
71150;SDS011;59071;42.138;24.768;2022-12-20T08:23:41;21.15;;;12.05;;
71150;SDS011;59071;42.138;24.768;2022-12-20T08:26:06;19.70;;;11.23;;
71150;SDS011;59071;42.138;24.768;2022-12-20T08:28:32;24.05;;;12.20;;
71150;SDS011;59071;42.138;24.768;2022-12-20T08:31:05;21.45;;;12.45;;
71150;SDS011;59071;42.138;24.768;2022-12-20T08:33:32;21.65;;;11.70;;
71150;SDS011;59071;42.138;24.768;2022-12-20T08:35:59;24.17;;;11.35;;
71150;SDS011;59071;42.138;24.768;2022-12-20T08:38:27;21.23;;;11.30;;
71150;SDS011;59071;42.138;24.768;2022-12-20T08:40:52;20.35;;;11.05;;
71150;SDS011;59071;42.138;24.768;2022-12-20T08:43:18;22.75;;;11.73;;
71150;SDS011;59071;42.138;24.768;2022-12-20T08:45:43;18.92;;;11.23;;
71150;SDS011;59071;42.138;24.768;2022-12-20T08:48:09;21.20;;;11.15;;
71150;SDS011;59071;42.138;24.768;2022-12-20T08:50:34;19.23;;;10.70;;
71150;SDS011;59071;42.138;24.768;2022-12-20T08:53:00;20.90;;;11.25;;
71150;SDS011;59071;42.138;24.768;2022-12-20T08:55:26;17.40;;;10.13;;
71150;SDS011;59071;42.138;24.768;2022-12-20T08:57:51;19.80;;;10.15;;
71150;SDS011;59071;42.138;24.768;2022-12-20T09:00:17;17.02;;;10.23;;
71150;SDS011;59071;42.138;24.768;2022-12-20T09:02:42;19.33;;;11.48;;
71150;SDS011;59071;42.138;24.768;2022-12-20T09:05:08;18.33;;;10.95;;
71150;SDS011;59071;42.138;24.768;2022-12-20T09:07:34;19.52;;;11.10;;
71150;SDS011;59071;42.138;24.768;2022-12-20T09:09:59;22.58;;;11.75;;
71150;SDS011;59071;42.138;24.768;2022-12-20T09:12:24;24.45;;;11.82;;
71150;SDS011;59071;42.138;24.768;2022-12-20T09:14:50;26.95;;;12.02;;
71150;SDS011;59071;42.138;24.768;2022-12-20T09:17:15;20.77;;;11.32;;
71150;SDS011;59071;42.138;24.768;2022-12-20T09:19:41;24.95;;;12.23;;
71150;SDS011;59071;42.138;24.768;2022-12-20T09:22:06;20.70;;;11.45;;
71150;SDS011;59071;42.138;24.768;2022-12-20T09:24:32;19.52;;;11.20;;
71150;SDS011;59071;42.138;24.768;2022-12-20T09:26:58;21.15;;;12.10;;
71150;SDS011;59071;42.138;24.768;2022-12-20T09:29:23;21.92;;;11.73;;
71150;SDS011;59071;42.138;24.768;2022-12-20T09:31:49;21.25;;;10.90;;
71150;SDS011;59071;42.138;24.768;2022-12-20T09:34:15;17.88;;;10.40;;
71150;SDS011;59071;42.138;24.768;2022-12-20T09:36:40;18.63;;;10.35;;
71150;SDS011;59071;42.138;24.768;2022-12-20T09:39:05;19.00;;;10.82;;
71150;SDS011;59071;42.138;24.768;2022-12-20T09:41:36;19.50;;;11.07;;
71150;SDS011;59071;42.138;24.768;2022-12-20T09:44:05;20.50;;;12.00;;
71150;SDS011;59071;42.138;24.768;2022-12-20T09:46:38;17.50;;;9.73;;
71150;SDS011;59071;42.138;24.768;2022-12-20T09:49:04;18.60;;;9.48;;
71150;SDS011;59071;42.138;24.768;2022-12-20T09:51:47;18.02;;;9.45;;
71150;SDS011;59071;42.138;24.768;2022-12-20T09:56:50;18.75;;;9.77;;
71150;SDS011;59071;42.138;24.768;2022-12-20T09:59:24;18.77;;;10.15;;
71150;SDS011;59071;42.138;24.768;2022-12-20T10:01:49;15.30;;;8.05;;
71150;SDS011;59071;42.138;24.768;2022-12-20T10:10:02;17.25;;;9.35;;
71150;SDS011;59071;42.138;24.768;2022-12-20T10:15:19;17.52;;;9.20;;
71150;SDS011;59071;42.138;24.768;2022-12-20T10:20:45;13.05;;;7.47;;
71150;SDS011;59071;42.138;24.768;2022-12-20T10:25:59;14.55;;;7.95;;
71150;SDS011;59071;42.138;24.768;2022-12-20T10:28:27;16.55;;;8.77;;
71150;SDS011;59071;42.138;24.768;2022-12-20T10:30:57;18.42;;;10.40;;
71150;SDS011;59071;42.138;24.768;2022-12-20T10:33:25;16.80;;;9.02;;
71150;SDS011;59071;42.138;24.768;2022-12-20T10:35:52;15.82;;;8.98;;
71150;SDS011;59071;42.138;24.768;2022-12-20T10:38:17;16.35;;;8.70;;
71150;SDS011;59071;42.138;24.768;2022-12-20T10:40:58;16.25;;;8.75;;
71150;SDS011;59071;42.138;24.768;2022-12-20T10:43:25;15.20;;;8.38;;
71150;SDS011;59071;42.138;24.768;2022-12-20T10:46:00;16.75;;;9.00;;
71150;SDS011;59071;42.138;24.768;2022-12-20T10:53:28;15.77;;;8.63;;
71150;SDS011;59071;42.138;24.768;2022-12-20T11:01:21;15.00;;;8.77;;
71150;SDS011;59071;42.138;24.768;2022-12-20T11:03:52;20.02;;;10.10;;
71150;SDS011;59071;42.138;24.768;2022-12-20T11:06:20;18.67;;;9.93;;
71150;SDS011;59071;42.138;24.768;2022-12-20T11:08:47;14.68;;;8.63;;
71150;SDS011;59071;42.138;24.768;2022-12-20T11:11:14;19.05;;;9.35;;
71150;SDS011;59071;42.138;24.768;2022-12-20T11:13:40;17.83;;;10.05;;
71150;SDS011;59071;42.138;24.768;2022-12-20T11:16:24;17.85;;;9.25;;
71150;SDS011;59071;42.138;24.768;2022-12-20T11:21:48;15.35;;;8.65;;
71150;SDS011;59071;42.138;24.768;2022-12-20T11:24:30;18.95;;;9.45;;
71150;SDS011;59071;42.138;24.768;2022-12-20T11:30:12;15.05;;;7.97;;
71150;SDS011;59071;42.138;24.768;2022-12-20T11:32:46;19.05;;;8.55;;
71150;SDS011;59071;42.138;24.768;2022-12-20T11:35:50;13.75;;;8.40;;
71150;SDS011;59071;42.138;24.768;2022-12-20T11:43:51;14.73;;;8.35;;
71150;SDS011;59071;42.138;24.768;2022-12-20T11:46:35;14.73;;;8.95;;
71150;SDS011;59071;42.138;24.768;2022-12-20T11:54:44;19.00;;;8.90;;
71150;SDS011;59071;42.138;24.768;2022-12-20T11:57:17;16.42;;;8.27;;
71150;SDS011;59071;42.138;24.768;2022-12-20T11:59:51;14.88;;;8.93;;
71150;SDS011;59071;42.138;24.768;2022-12-20T12:05:17;13.40;;;8.00;;
71150;SDS011;59071;42.138;24.768;2022-12-20T12:07:48;13.15;;;8.20;;
71150;SDS011;59071;42.138;24.768;2022-12-20T12:10:21;17.00;;;8.68;;
71150;SDS011;59071;42.138;24.768;2022-12-20T12:12:56;16.30;;;8.13;;
71150;SDS011;59071;42.138;24.768;2022-12-20T12:15:30;13.98;;;8.15;;
71150;SDS011;59071;42.138;24.768;2022-12-20T12:20:39;15.48;;;8.52;;
71150;SDS011;59071;42.138;24.768;2022-12-20T12:23:17;16.50;;;9.25;;
71150;SDS011;59071;42.138;24.768;2022-12-20T12:25:47;16.48;;;8.43;;
71150;SDS011;59071;42.138;24.768;2022-12-20T12:28:13;15.90;;;8.85;;
71150;SDS011;59071;42.138;24.768;2022-12-20T12:30:42;16.83;;;8.20;;
71150;SDS011;59071;42.138;24.768;2022-12-20T12:33:22;17.30;;;9.15;;
71150;SDS011;59071;42.138;24.768;2022-12-20T12:47:12;14.55;;;8.38;;
71150;SDS011;59071;42.138;24.768;2022-12-20T12:49:45;17.85;;;8.85;;
71150;SDS011;59071;42.138;24.768;2022-12-20T12:58:14;15.15;;;8.75;;
71150;SDS011;59071;42.138;24.768;2022-12-20T13:01:03;19.48;;;8.80;;
71150;SDS011;59071;42.138;24.768;2022-12-20T13:03:37;21.67;;;9.13;;
71150;SDS011;59071;42.138;24.768;2022-12-20T13:16:49;16.73;;;9.50;;
71150;SDS011;59071;42.138;24.768;2022-12-20T13:21:55;19.45;;;9.45;;
71150;SDS011;59071;42.138;24.768;2022-12-20T13:24:34;20.23;;;9.90;;
71150;SDS011;59071;42.138;24.768;2022-12-20T13:27:02;19.52;;;9.15;;
71150;SDS011;59071;42.138;24.768;2022-12-20T13:40:34;17.58;;;8.88;;
71150;SDS011;59071;42.138;24.768;2022-12-20T13:43:27;18.88;;;7.88;;
71150;SDS011;59071;42.138;24.768;2022-12-20T13:46:12;16.80;;;8.52;;
71150;SDS011;59071;42.138;24.768;2022-12-20T13:51:22;14.55;;;8.20;;
71150;SDS011;59071;42.138;24.768;2022-12-20T13:58:54;19.45;;;8.52;;
71150;SDS011;59071;42.138;24.768;2022-12-20T14:01:22;15.75;;;7.95;;
71150;SDS011;59071;42.138;24.768;2022-12-20T14:03:49;18.48;;;8.93;;
71150;SDS011;59071;42.138;24.768;2022-12-20T14:06:17;15.55;;;8.48;;
71150;SDS011;59071;42.138;24.768;2022-12-20T14:08:46;16.70;;;8.57;;
71150;SDS011;59071;42.138;24.768;2022-12-20T14:11:18;13.95;;;8.30;;
71150;SDS011;59071;42.138;24.768;2022-12-20T14:13:54;19.20;;;9.13;;
71150;SDS011;59071;42.138;24.768;2022-12-20T14:16:21;18.83;;;8.43;;
71150;SDS011;59071;42.138;24.768;2022-12-20T14:18:50;17.23;;;8.90;;
71150;SDS011;59071;42.138;24.768;2022-12-20T14:21:29;15.88;;;9.10;;
71150;SDS011;59071;42.138;24.768;2022-12-20T14:23:56;18.17;;;8.90;;
71150;SDS011;59071;42.138;24.768;2022-12-20T14:26:28;15.88;;;8.93;;
71150;SDS011;59071;42.138;24.768;2022-12-20T14:28:58;21.25;;;9.70;;
71150;SDS011;59071;42.138;24.768;2022-12-20T14:31:26;24.02;;;9.48;;
71150;SDS011;59071;42.138;24.768;2022-12-20T14:36:34;17.50;;;9.00;;
71150;SDS011;59071;42.138;24.768;2022-12-20T14:39:09;18.80;;;9.45;;
71150;SDS011;59071;42.138;24.768;2022-12-20T14:42:01;23.42;;;9.93;;
71150;SDS011;59071;42.138;24.768;2022-12-20T14:44:27;21.73;;;9.40;;
71150;SDS011;59071;42.138;24.768;2022-12-20T14:46:58;22.65;;;9.90;;
71150;SDS011;59071;42.138;24.768;2022-12-20T14:49:35;20.63;;;10.63;;
71150;SDS011;59071;42.138;24.768;2022-12-20T14:52:03;20.10;;;9.20;;
71150;SDS011;59071;42.138;24.768;2022-12-20T14:54:41;20.88;;;10.38;;
71150;SDS011;59071;42.138;24.768;2022-12-20T14:57:10;18.08;;;9.32;;
71150;SDS011;59071;42.138;24.768;2022-12-20T15:02:42;31.08;;;15.45;;
71150;SDS011;59071;42.138;24.768;2022-12-20T15:13:24;19.92;;;10.43;;
71150;SDS011;59071;42.138;24.768;2022-12-20T15:16:03;21.65;;;9.82;;
71150;SDS011;59071;42.138;24.768;2022-12-20T15:18:30;23.80;;;11.30;;
71150;SDS011;59071;42.138;24.768;2022-12-20T15:21:00;21.50;;;11.77;;
71150;SDS011;59071;42.138;24.768;2022-12-20T15:23:35;21.02;;;11.68;;
71150;SDS011;59071;42.138;24.768;2022-12-20T15:26:05;27.92;;;12.48;;
71150;SDS011;59071;42.138;24.768;2022-12-20T15:28:31;36.92;;;13.80;;
71150;SDS011;59071;42.138;24.768;2022-12-20T15:30:56;29.60;;;14.48;;
71150;SDS011;59071;42.138;24.768;2022-12-20T15:33:25;34.50;;;15.10;;
71150;SDS011;59071;42.138;24.768;2022-12-20T15:35:54;29.58;;;15.88;;
71150;SDS011;59071;42.138;24.768;2022-12-20T15:38:23;36.83;;;17.00;;
71150;SDS011;59071;42.138;24.768;2022-12-20T15:40:54;54.70;;;22.27;;
71150;SDS011;59071;42.138;24.768;2022-12-20T15:43:24;43.35;;;19.90;;
71150;SDS011;59071;42.138;24.768;2022-12-20T15:45:51;43.42;;;18.27;;
71150;SDS011;59071;42.138;24.768;2022-12-20T15:48:19;35.95;;;16.27;;
71150;SDS011;59071;42.138;24.768;2022-12-20T15:50:56;40.30;;;17.20;;
71150;SDS011;59071;42.138;24.768;2022-12-20T15:53:24;37.00;;;17.30;;
71150;SDS011;59071;42.138;24.768;2022-12-20T15:55:52;38.93;;;18.07;;
71150;SDS011;59071;42.138;24.768;2022-12-20T15:58:20;40.53;;;18.40;;
71150;SDS011;59071;42.138;24.768;2022-12-20T16:00:46;45.05;;;17.85;;
71150;SDS011;59071;42.138;24.768;2022-12-20T16:03:19;54.08;;;18.90;;
71150;SDS011;59071;42.138;24.768;2022-12-20T16:05:47;56.35;;;19.55;;
71150;SDS011;59071;42.138;24.768;2022-12-20T16:08:13;42.70;;;17.63;;
71150;SDS011;59071;42.138;24.768;2022-12-20T16:10:40;47.72;;;18.45;;
71150;SDS011;59071;42.138;24.768;2022-12-20T16:13:06;41.00;;;18.95;;
71150;SDS011;59071;42.138;24.768;2022-12-20T16:15:34;48.17;;;20.05;;
71150;SDS011;59071;42.138;24.768;2022-12-20T16:17:59;54.17;;;20.80;;
71150;SDS011;59071;42.138;24.768;2022-12-20T16:20:25;51.42;;;24.30;;
71150;SDS011;59071;42.138;24.768;2022-12-20T16:22:51;47.22;;;22.75;;
71150;SDS011;59071;42.138;24.768;2022-12-20T16:25:20;54.35;;;24.88;;
71150;SDS011;59071;42.138;24.768;2022-12-20T16:27:49;62.58;;;27.10;;
71150;SDS011;59071;42.138;24.768;2022-12-20T16:30:15;63.53;;;27.67;;
71150;SDS011;59071;42.138;24.768;2022-12-20T16:32:41;49.70;;;25.48;;
71150;SDS011;59071;42.138;24.768;2022-12-20T16:35:11;48.85;;;23.92;;
71150;SDS011;59071;42.138;24.768;2022-12-20T16:37:47;51.25;;;24.90;;